sensor_id;sensor_type;location;lat;lon;timestamp;pressure;altitude;pressure_sealevel;temperature;humidity
78673;BME280;67988;60.086;30.354;2023-07-13T00:00:30;100422.22;;;16.64;53.15
78673;BME280;67988;60.086;30.354;2023-07-13T00:02:59;100421.00;;;16.58;53.39
78673;BME280;67988;60.086;30.354;2023-07-13T00:05:26;100422.19;;;16.56;53.46
78673;BME280;67988;60.086;30.354;2023-07-13T00:07:54;100416.94;;;16.38;54.06
78673;BME280;67988;60.086;30.354;2023-07-13T00:10:21;100422.13;;;16.40;53.95
78673;BME280;67988;60.086;30.354;2023-07-13T00:12:49;100425.50;;;16.42;53.81
78673;BME280;67988;60.086;30.354;2023-07-13T00:15:18;100423.13;;;16.39;54.08
78673;BME280;67988;60.086;30.354;2023-07-13T00:17:48;100424.97;;;16.38;54.05
78673;BME280;67988;60.086;30.354;2023-07-13T00:20:17;100430.69;;;16.35;54.79
78673;BME280;67988;60.086;30.354;2023-07-13T00:22:44;100422.44;;;16.28;54.85
78673;BME280;67988;60.086;30.354;2023-07-13T00:25:12;100417.22;;;16.19;55.33
78673;BME280;67988;60.086;30.354;2023-07-13T00:27:39;100415.19;;;16.21;55.42
78673;BME280;67988;60.086;30.354;2023-07-13T00:30:07;100413.69;;;16.26;55.00
78673;BME280;67988;60.086;30.354;2023-07-13T00:32:34;100407.69;;;16.32;54.78
78673;BME280;67988;60.086;30.354;2023-07-13T00:35:02;100400.47;;;16.33;54.76
78673;BME280;67988;60.086;30.354;2023-07-13T00:37:31;100399.63;;;16.32;55.38
78673;BME280;67988;60.086;30.354;2023-07-13T00:39:59;100400.31;;;16.35;55.53
78673;BME280;67988;60.086;30.354;2023-07-13T00:42:26;100389.53;;;16.26;56.04
78673;BME280;67988;60.086;30.354;2023-07-13T00:45:05;100386.69;;;16.28;55.25
78673;BME280;67988;60.086;30.354;2023-07-13T00:47:33;100387.53;;;16.28;55.30
78673;BME280;67988;60.086;30.354;2023-07-13T00:50:01;100386.34;;;16.31;55.02
78673;BME280;67988;60.086;30.354;2023-07-13T00:52:31;100388.34;;;16.21;55.13
78673;BME280;67988;60.086;30.354;2023-07-13T00:54:59;100385.00;;;16.27;54.84
78673;BME280;67988;60.086;30.354;2023-07-13T00:57:27;100382.84;;;16.30;54.68
78673;BME280;67988;60.086;30.354;2023-07-13T00:59:57;100386.19;;;16.32;54.78
78673;BME280;67988;60.086;30.354;2023-07-13T01:02:26;100378.47;;;16.29;54.95
78673;BME280;67988;60.086;30.354;2023-07-13T01:04:56;100377.63;;;16.29;55.27
78673;BME280;67988;60.086;30.354;2023-07-13T01:07:23;100380.16;;;16.30;55.13
78673;BME280;67988;60.086;30.354;2023-07-13T01:09:52;100376.66;;;16.30;55.19
78673;BME280;67988;60.086;30.354;2023-07-13T01:12:19;100377.63;;;16.29;55.18
78673;BME280;67988;60.086;30.354;2023-07-13T01:14:46;100375.94;;;16.20;55.11
78673;BME280;67988;60.086;30.354;2023-07-13T01:17:13;100377.09;;;16.17;56.10
78673;BME280;67988;60.086;30.354;2023-07-13T01:19:43;100383.28;;;16.10;56.27
78673;BME280;67988;60.086;30.354;2023-07-13T01:22:13;100379.25;;;16.06;56.40
78673;BME280;67988;60.086;30.354;2023-07-13T01:24:43;100380.44;;;16.03;57.56
78673;BME280;67988;60.086;30.354;2023-07-13T01:27:12;100379.22;;;15.98;57.88
78673;BME280;67988;60.086;30.354;2023-07-13T01:29:42;100384.75;;;15.96;58.39
78673;BME280;67988;60.086;30.354;2023-07-13T01:32:11;100382.22;;;15.95;58.49
78673;BME280;67988;60.086;30.354;2023-07-13T01:34:38;100365.75;;;15.81;59.10
78673;BME280;67988;60.086;30.354;2023-07-13T01:37:08;100373.81;;;15.89;59.31
78673;BME280;67988;60.086;30.354;2023-07-13T01:39:36;100373.97;;;15.88;59.19
78673;BME280;67988;60.086;30.354;2023-07-13T01:42:04;100369.09;;;15.83;59.72
78673;BME280;67988;60.086;30.354;2023-07-13T01:44:32;100364.56;;;15.84;59.36
78673;BME280;67988;60.086;30.354;2023-07-13T01:47:01;100373.47;;;15.84;58.74
78673;BME280;67988;60.086;30.354;2023-07-13T01:49:28;100363.38;;;15.78;59.41
78673;BME280;67988;60.086;30.354;2023-07-13T01:51:55;100363.59;;;15.85;59.33
78673;BME280;67988;60.086;30.354;2023-07-13T01:54:23;100362.09;;;15.90;58.88
78673;BME280;67988;60.086;30.354;2023-07-13T01:56:51;100360.41;;;15.89;58.90
78673;BME280;67988;60.086;30.354;2023-07-13T01:59:18;100343.75;;;15.78;59.02
78673;BME280;67988;60.086;30.354;2023-07-13T02:01:46;100371.47;;;15.86;58.35
78673;BME280;67988;60.086;30.354;2023-07-13T02:04:13;100362.59;;;15.86;58.00
78673;BME280;67988;60.086;30.354;2023-07-13T02:06:40;100365.63;;;15.91;57.81
78673;BME280;67988;60.086;30.354;2023-07-13T02:09:07;100361.59;;;15.87;57.69
78673;BME280;67988;60.086;30.354;2023-07-13T02:11:35;100354.88;;;15.91;57.69
78673;BME280;67988;60.086;30.354;2023-07-13T02:14:03;100349.88;;;15.96;57.89
78673;BME280;67988;60.086;30.354;2023-07-13T02:16:30;100353.25;;;15.98;58.23
78673;BME280;67988;60.086;30.354;2023-07-13T02:18:57;100338.94;;;15.89;58.04
78673;BME280;67988;60.086;30.354;2023-07-13T02:21:26;100355.09;;;15.98;58.38
78673;BME280;67988;60.086;30.354;2023-07-13T02:23:53;100350.13;;;15.77;59.03
78673;BME280;67988;60.086;30.354;2023-07-13T02:26:20;100355.13;;;15.72;59.32
78673;BME280;67988;60.086;30.354;2023-07-13T02:28:48;100366.50;;;15.66;59.60
78673;BME280;67988;60.086;30.354;2023-07-13T02:31:16;100367.97;;;15.60;58.79
78673;BME280;67988;60.086;30.354;2023-07-13T02:33:45;100370.34;;;15.63;58.27
78673;BME280;67988;60.086;30.354;2023-07-13T02:36:13;100362.81;;;15.67;56.93
78673;BME280;67988;60.086;30.354;2023-07-13T02:38:44;100356.66;;;15.74;55.57
78673;BME280;67988;60.086;30.354;2023-07-13T02:41:11;100358.34;;;15.75;54.57
78673;BME280;67988;60.086;30.354;2023-07-13T02:43:39;100362.47;;;15.62;54.37
78673;BME280;67988;60.086;30.354;2023-07-13T02:46:08;100359.47;;;15.65;54.20
78673;BME280;67988;60.086;30.354;2023-07-13T02:48:38;100327.94;;;15.59;53.98
78673;BME280;67988;60.086;30.354;2023-07-13T02:51:06;100320.91;;;15.66;53.29
78673;BME280;67988;60.086;30.354;2023-07-13T02:53:34;100359.25;;;16.00;53.19
78673;BME280;67988;60.086;30.354;2023-07-13T02:56:02;100364.63;;;16.00;53.43
78673;BME280;67988;60.086;30.354;2023-07-13T02:58:30;100365.16;;;16.04;53.83
78673;BME280;67988;60.086;30.354;2023-07-13T03:00:57;100368.50;;;16.06;53.92
78673;BME280;67988;60.086;30.354;2023-07-13T03:03:26;100368.84;;;16.11;54.44
78673;BME280;67988;60.086;30.354;2023-07-13T03:06:00;100371.03;;;16.07;54.61
78673;BME280;67988;60.086;30.354;2023-07-13T03:08:33;100370.19;;;16.15;54.61
78673;BME280;67988;60.086;30.354;2023-07-13T03:11:01;100369.41;;;16.22;54.18
78673;BME280;67988;60.086;30.354;2023-07-13T03:13:31;100370.25;;;16.31;53.86
78673;BME280;67988;60.086;30.354;2023-07-13T03:15:58;100371.78;;;16.33;53.83
78673;BME280;67988;60.086;30.354;2023-07-13T03:18:27;100353.31;;;16.30;53.63
78673;BME280;67988;60.086;30.354;2023-07-13T03:20:55;100368.28;;;16.41;54.07
78673;BME280;67988;60.086;30.354;2023-07-13T03:23:23;100361.72;;;16.44;54.05
78673;BME280;67988;60.086;30.354;2023-07-13T03:26:01;100364.09;;;16.55;53.78
78673;BME280;67988;60.086;30.354;2023-07-13T03:28:28;100331.00;;;16.46;53.44
78673;BME280;67988;60.086;30.354;2023-07-13T03:30:59;100367.81;;;16.70;53.67
78673;BME280;67988;60.086;30.354;2023-07-13T03:33:27;100333.69;;;16.54;53.15
78673;BME280;67988;60.086;30.354;2023-07-13T03:35:54;100346.31;;;16.70;52.58
78673;BME280;67988;60.086;30.354;2023-07-13T03:38:21;100365.66;;;16.90;52.17
78673;BME280;67988;60.086;30.354;2023-07-13T03:40:50;100358.09;;;17.01;51.74
78673;BME280;67988;60.086;30.354;2023-07-13T03:43:17;100348.31;;;17.08;51.27
78673;BME280;67988;60.086;30.354;2023-07-13T03:45:46;100344.75;;;17.24;50.71
78673;BME280;67988;60.086;30.354;2023-07-13T03:48:13;100336.31;;;17.35;49.84
78673;BME280;67988;60.086;30.354;2023-07-13T03:50:41;100337.69;;;17.31;49.15
78673;BME280;67988;60.086;30.354;2023-07-13T03:53:08;100329.66;;;17.23;48.99
78673;BME280;67988;60.086;30.354;2023-07-13T03:55:35;100327.44;;;17.19;49.22
78673;BME280;67988;60.086;30.354;2023-07-13T03:58:26;100333.06;;;17.01;49.52
78673;BME280;67988;60.086;30.354;2023-07-13T04:00:57;100329.72;;;16.75;50.98
78673;BME280;67988;60.086;30.354;2023-07-13T04:03:25;100328.16;;;16.56;51.86
78673;BME280;67988;60.086;30.354;2023-07-13T04:05:54;100336.06;;;16.65;51.90
78673;BME280;67988;60.086;30.354;2023-07-13T04:08:26;100309.03;;;16.51;51.32
78673;BME280;67988;60.086;30.354;2023-07-13T04:10:54;100334.91;;;16.76;51.31
78673;BME280;67988;60.086;30.354;2023-07-13T04:13:23;100329.53;;;16.84;50.79
78673;BME280;67988;60.086;30.354;2023-07-13T04:15:52;100338.44;;;16.85;50.26
78673;BME280;67988;60.086;30.354;2023-07-13T04:18:19;100335.56;;;16.86;50.58
78673;BME280;67988;60.086;30.354;2023-07-13T04:20:46;100332.88;;;16.86;49.72
78673;BME280;67988;60.086;30.354;2023-07-13T04:23:14;100329.00;;;16.97;49.87
78673;BME280;67988;60.086;30.354;2023-07-13T04:25:43;100335.09;;;16.91;48.92
78673;BME280;67988;60.086;30.354;2023-07-13T04:28:10;100308.88;;;16.85;48.27
78673;BME280;67988;60.086;30.354;2023-07-13T04:30:37;100328.53;;;17.01;46.89
78673;BME280;67988;60.086;30.354;2023-07-13T04:33:06;100333.53;;;17.12;46.58
78673;BME280;67988;60.086;30.354;2023-07-13T04:39:11;100329.97;;;17.28;46.23
78673;BME280;67988;60.086;30.354;2023-07-13T04:45:50;100332.47;;;17.30;45.38
78673;BME280;67988;60.086;30.354;2023-07-13T04:48:19;100325.00;;;17.56;45.19
78673;BME280;67988;60.086;30.354;2023-07-13T04:50:47;100316.75;;;17.66;45.44
78673;BME280;67988;60.086;30.354;2023-07-13T04:57:33;100313.38;;;17.72;45.12
78673;BME280;67988;60.086;30.354;2023-07-13T05:00:00;100316.69;;;17.82;44.97
78673;BME280;67988;60.086;30.354;2023-07-13T05:02:33;100325.38;;;17.92;45.21
78673;BME280;67988;60.086;30.354;2023-07-13T05:05:03;100318.09;;;17.70;45.63
78673;BME280;67988;60.086;30.354;2023-07-13T05:07:30;100318.53;;;17.81;44.22
78673;BME280;67988;60.086;30.354;2023-07-13T05:09:58;100312.28;;;17.89;43.68
78673;BME280;67988;60.086;30.354;2023-07-13T05:12:26;100311.28;;;18.13;44.01
78673;BME280;67988;60.086;30.354;2023-07-13T05:14:53;100321.06;;;18.36;43.28
78673;BME280;67988;60.086;30.354;2023-07-13T05:17:20;100330.28;;;18.42;43.44
78673;BME280;67988;60.086;30.354;2023-07-13T05:19:47;100325.91;;;18.41;43.77
78673;BME280;67988;60.086;30.354;2023-07-13T05:22:16;100304.47;;;18.25;43.80
78673;BME280;67988;60.086;30.354;2023-07-13T05:24:43;100325.56;;;18.21;44.27
78673;BME280;67988;60.086;30.354;2023-07-13T05:27:10;100314.66;;;18.37;44.16
78673;BME280;67988;60.086;30.354;2023-07-13T05:29:37;100323.38;;;18.39;44.61
78673;BME280;67988;60.086;30.354;2023-07-13T05:32:05;100309.03;;;18.47;44.82
78673;BME280;67988;60.086;30.354;2023-07-13T05:34:32;100326.28;;;18.38;45.30
78673;BME280;67988;60.086;30.354;2023-07-13T05:36:59;100326.63;;;18.35;45.40
78673;BME280;67988;60.086;30.354;2023-07-13T05:39:28;100331.72;;;18.53;44.65
78673;BME280;67988;60.086;30.354;2023-07-13T05:41:55;100325.66;;;18.51;45.27
78673;BME280;67988;60.086;30.354;2023-07-13T05:44:22;100326.00;;;18.56;44.71
78673;BME280;67988;60.086;30.354;2023-07-13T05:51:02;100332.34;;;19.00;44.07
78673;BME280;67988;60.086;30.354;2023-07-13T05:53:29;100338.97;;;18.98;44.86
78673;BME280;67988;60.086;30.354;2023-07-13T05:55:57;100334.09;;;19.31;44.72
78673;BME280;67988;60.086;30.354;2023-07-13T05:58:24;100336.34;;;19.56;44.03
78673;BME280;67988;60.086;30.354;2023-07-13T06:05:04;100334.75;;;19.77;43.93
78673;BME280;67988;60.086;30.354;2023-07-13T06:07:31;100327.75;;;19.38;44.64
78673;BME280;67988;60.086;30.354;2023-07-13T06:09:58;100333.69;;;19.34;44.56
78673;BME280;67988;60.086;30.354;2023-07-13T06:12:27;100333.88;;;19.32;45.23
78673;BME280;67988;60.086;30.354;2023-07-13T06:14:54;100335.50;;;19.56;44.68
78673;BME280;67988;60.086;30.354;2023-07-13T06:17:21;100328.75;;;19.22;45.26
78673;BME280;67988;60.086;30.354;2023-07-13T06:19:49;100324.69;;;19.41;44.47
78673;BME280;67988;60.086;30.354;2023-07-13T06:22:16;100322.06;;;19.33;44.72
78673;BME280;67988;60.086;30.354;2023-07-13T06:24:43;100330.09;;;19.41;44.61
78673;BME280;67988;60.086;30.354;2023-07-13T06:27:10;100327.09;;;19.36;44.66
78673;BME280;67988;60.086;30.354;2023-07-13T06:29:39;100329.16;;;19.34;44.34
78673;BME280;67988;60.086;30.354;2023-07-13T06:32:07;100342.09;;;19.53;44.15
78673;BME280;67988;60.086;30.354;2023-07-13T06:34:34;100337.88;;;19.80;43.72
78673;BME280;67988;60.086;30.354;2023-07-13T06:37:02;100326.06;;;19.96;43.23
78673;BME280;67988;60.086;30.354;2023-07-13T06:39:29;100327.25;;;19.93;43.71
78673;BME280;67988;60.086;30.354;2023-07-13T06:41:56;100326.72;;;20.19;43.79
78673;BME280;67988;60.086;30.354;2023-07-13T06:44:23;100330.31;;;20.05;43.27
78673;BME280;67988;60.086;30.354;2023-07-13T06:46:52;100330.97;;;19.92;43.28
78673;BME280;67988;60.086;30.354;2023-07-13T06:49:19;100323.66;;;19.72;43.46
78673;BME280;67988;60.086;30.354;2023-07-13T06:51:46;100339.09;;;20.07;43.19
78673;BME280;67988;60.086;30.354;2023-07-13T06:54:13;100347.91;;;20.16;42.94
78673;BME280;67988;60.086;30.354;2023-07-13T06:56:40;100347.13;;;20.22;42.89
78673;BME280;67988;60.086;30.354;2023-07-13T06:59:08;100348.13;;;20.35;42.98
78673;BME280;67988;60.086;30.354;2023-07-13T07:01:35;100353.00;;;20.40;42.85
78673;BME280;67988;60.086;30.354;2023-07-13T07:04:04;100350.59;;;20.52;41.95
78673;BME280;67988;60.086;30.354;2023-07-13T20:23:12;100471.44;;;16.81;55.15
78673;BME280;67988;60.086;30.354;2023-07-13T20:25:41;100480.69;;;16.86;55.51
78673;BME280;67988;60.086;30.354;2023-07-13T20:28:08;100479.53;;;16.97;55.83
78673;BME280;67988;60.086;30.354;2023-07-13T20:30:37;100465.09;;;17.06;55.55
78673;BME280;67988;60.086;30.354;2023-07-13T20:33:06;100473.00;;;17.15;55.42
78673;BME280;67988;60.086;30.354;2023-07-13T20:35:38;100469.47;;;17.23;55.23
78673;BME280;67988;60.086;30.354;2023-07-13T20:38:05;100469.81;;;17.28;54.65
78673;BME280;67988;60.086;30.354;2023-07-13T20:40:34;100469.31;;;17.33;54.73
78673;BME280;67988;60.086;30.354;2023-07-13T20:43:01;100476.03;;;17.37;54.36
78673;BME280;67988;60.086;30.354;2023-07-13T20:45:29;100477.53;;;17.39;54.24
78673;BME280;67988;60.086;30.354;2023-07-13T20:48:00;100481.72;;;17.42;54.14
78673;BME280;67988;60.086;30.354;2023-07-13T20:50:30;100480.03;;;17.41;53.54
78673;BME280;67988;60.086;30.354;2023-07-13T20:53:01;100485.09;;;17.44;53.24
78673;BME280;67988;60.086;30.354;2023-07-13T20:55:30;100448.09;;;17.30;53.62
78673;BME280;67988;60.086;30.354;2023-07-13T20:57:58;100468.81;;;17.45;53.53
78673;BME280;67988;60.086;30.354;2023-07-13T21:00:27;100475.84;;;17.46;53.39
78673;BME280;67988;60.086;30.354;2023-07-13T21:02:58;100474.34;;;17.44;53.56
78673;BME280;67988;60.086;30.354;2023-07-13T21:05:33;100484.41;;;17.42;53.59
78673;BME280;67988;60.086;30.354;2023-07-13T21:08:01;100481.56;;;17.43;53.35
78673;BME280;67988;60.086;30.354;2023-07-13T21:10:29;100483.41;;;17.43;53.35
78673;BME280;67988;60.086;30.354;2023-07-13T21:12:58;100488.63;;;17.44;52.87
78673;BME280;67988;60.086;30.354;2023-07-13T21:15:27;100484.09;;;17.37;53.89
78673;BME280;67988;60.086;30.354;2023-07-13T21:17:57;100486.94;;;17.35;53.97
78673;BME280;67988;60.086;30.354;2023-07-13T21:20:28;100496.34;;;17.31;54.68
78673;BME280;67988;60.086;30.354;2023-07-13T21:22:55;100493.84;;;17.22;54.63
78673;BME280;67988;60.086;30.354;2023-07-13T21:25:24;100498.03;;;17.24;54.36
78673;BME280;67988;60.086;30.354;2023-07-13T21:27:53;100491.47;;;17.19;55.07
78673;BME280;67988;60.086;30.354;2023-07-13T21:30:24;100493.00;;;17.05;55.80
78673;BME280;67988;60.086;30.354;2023-07-13T21:32:54;100489.81;;;17.01;56.20
78673;BME280;67988;60.086;30.354;2023-07-13T21:35:27;100495.50;;;16.98;56.53
78673;BME280;67988;60.086;30.354;2023-07-13T21:37:55;100487.25;;;16.92;56.76
78673;BME280;67988;60.086;30.354;2023-07-13T21:40:24;100483.06;;;16.89;56.90
78673;BME280;67988;60.086;30.354;2023-07-13T21:42:52;100482.22;;;16.89;56.45
78673;BME280;67988;60.086;30.354;2023-07-13T21:45:23;100488.44;;;16.89;56.43
78673;BME280;67988;60.086;30.354;2023-07-13T21:47:51;100492.28;;;16.79;57.21
78673;BME280;67988;60.086;30.354;2023-07-13T21:50:20;100482.84;;;16.66;57.25
78673;BME280;67988;60.086;30.354;2023-07-13T21:52:47;100492.25;;;16.62;57.33
78673;BME280;67988;60.086;30.354;2023-07-13T21:55:17;100490.03;;;16.58;58.02
78673;BME280;67988;60.086;30.354;2023-07-13T21:57:47;100487.28;;;16.50;57.98
78673;BME280;67988;60.086;30.354;2023-07-13T22:00:19;100481.72;;;16.35;58.87
78673;BME280;67988;60.086;30.354;2023-07-13T22:02:49;100482.72;;;16.34;58.54
78673;BME280;67988;60.086;30.354;2023-07-13T22:05:18;100484.50;;;16.17;59.43
78673;BME280;67988;60.086;30.354;2023-07-13T22:07:47;100487.50;;;16.14;59.41
78673;BME280;67988;60.086;30.354;2023-07-13T22:10:16;100485.97;;;16.12;59.77
78673;BME280;67988;60.086;30.354;2023-07-13T22:12:44;100485.25;;;16.02;60.32
78673;BME280;67988;60.086;30.354;2023-07-13T22:15:11;100466.66;;;15.74;61.04
78673;BME280;67988;60.086;30.354;2023-07-13T22:17:45;100492.88;;;15.88;60.89
78673;BME280;67988;60.086;30.354;2023-07-13T22:20:17;100487.63;;;15.79;61.63
78673;BME280;67988;60.086;30.354;2023-07-13T22:22:44;100483.03;;;15.71;61.46
78673;BME280;67988;60.086;30.354;2023-07-13T22:25:12;100478.72;;;15.70;61.72
78673;BME280;67988;60.086;30.354;2023-07-13T22:27:39;100472.06;;;15.57;62.14
78673;BME280;67988;60.086;30.354;2023-07-13T22:30:10;100481.81;;;15.58;62.12
78673;BME280;67988;60.086;30.354;2023-07-13T22:32:38;100484.81;;;15.55;62.18
78673;BME280;67988;60.086;30.354;2023-07-13T22:35:07;100486.06;;;15.50;62.33
78673;BME280;67988;60.086;30.354;2023-07-13T22:37:37;100485.19;;;15.42;62.86
78673;BME280;67988;60.086;30.354;2023-07-13T22:40:10;100490.69;;;15.40;62.71
78673;BME280;67988;60.086;30.354;2023-07-13T22:42:37;100479.97;;;15.40;62.42
78673;BME280;67988;60.086;30.354;2023-07-13T22:45:07;100483.97;;;15.36;62.82
78673;BME280;67988;60.086;30.354;2023-07-13T22:47:37;100483.72;;;15.30;62.91
78673;BME280;67988;60.086;30.354;2023-07-13T22:50:12;100489.63;;;15.33;63.13
78673;BME280;67988;60.086;30.354;2023-07-13T22:52:42;100469.13;;;15.24;62.84
78673;BME280;67988;60.086;30.354;2023-07-13T22:55:12;100477.75;;;15.36;62.98
78673;BME280;67988;60.086;30.354;2023-07-13T22:57:41;100486.94;;;15.33;62.94
78673;BME280;67988;60.086;30.354;2023-07-13T23:00:14;100478.59;;;15.36;62.86
78673;BME280;67988;60.086;30.354;2023-07-13T23:02:42;100473.34;;;15.27;63.02
78673;BME280;67988;60.086;30.354;2023-07-13T23:05:13;100471.66;;;15.26;63.19
78673;BME280;67988;60.086;30.354;2023-07-13T23:07:42;100466.53;;;15.15;63.31
78673;BME280;67988;60.086;30.354;2023-07-13T23:10:14;100476.94;;;15.18;63.53
78673;BME280;67988;60.086;30.354;2023-07-13T23:12:42;100478.63;;;15.19;63.56
78673;BME280;67988;60.086;30.354;2023-07-13T23:15:10;100476.69;;;15.11;63.99
78673;BME280;67988;60.086;30.354;2023-07-13T23:17:38;100478.16;;;15.05;63.98
78673;BME280;67988;60.086;30.354;2023-07-13T23:20:16;100479.16;;;15.04;64.10
78673;BME280;67988;60.086;30.354;2023-07-13T23:22:47;100471.03;;;14.96;64.45
78673;BME280;67988;60.086;30.354;2023-07-13T23:25:15;100473.34;;;14.91;64.41
78673;BME280;67988;60.086;30.354;2023-07-13T23:27:43;100472.13;;;14.86;64.73
78673;BME280;67988;60.086;30.354;2023-07-13T23:30:13;100465.84;;;14.77;65.47
78673;BME280;67988;60.086;30.354;2023-07-13T23:32:41;100467.97;;;14.74;65.09
78673;BME280;67988;60.086;30.354;2023-07-13T23:35:11;100465.47;;;14.72;65.25
78673;BME280;67988;60.086;30.354;2023-07-13T23:37:38;100469.59;;;14.67;65.55
78673;BME280;67988;60.086;30.354;2023-07-13T23:40:18;100457.34;;;14.64;65.66
78673;BME280;67988;60.086;30.354;2023-07-13T23:42:46;100435.28;;;14.52;65.40
78673;BME280;67988;60.086;30.354;2023-07-13T23:45:15;100449.06;;;14.57;65.74
78673;BME280;67988;60.086;30.354;2023-07-13T23:47:45;100420.84;;;14.36;65.90
78673;BME280;67988;60.086;30.354;2023-07-13T23:50:14;100459.38;;;14.52;66.02
78673;BME280;67988;60.086;30.354;2023-07-13T23:52:42;100457.41;;;14.54;65.92
78673;BME280;67988;60.086;30.354;2023-07-13T23:55:17;100453.19;;;14.52;66.06
78673;BME280;67988;60.086;30.354;2023-07-13T23:57:44;100451.09;;;14.46;66.25
